Terminal Aerodrome Forecast
Issued by NWS Brownsville, TX

Home | Current Version | Previous Version | Text Only | Print | Product List | Glossary On
Versions: 1 2 3 4 5 6 7 8 9 10 11 12 13 14 15 16 17
063
FTUS44 KBRO 090527
TAFBRO
TAF
KBRO 090527Z 0906/1006 VRB04KT P6SM BKN250
     FM091600 29009KT P6SM SCT250
     FM100000 09005KT P6SM FEW250=

USA.gov is the U.S. government's official web portal to all federal, state and local government web resources and services.